Time;durP1;ratioP1;P1;durP2;ratioP2;P2;SDS_P1;SDS_P2;PMS_P1;PMS_P2;Temp;Humidity;BMP_temperature;BMP_pressure;BME280_temperature;BME280_humidity;BME280_pressure;Samples;Min_cycle;Max_cycle;Signal;HPM_P1;HPM_P2
2020/12/29 00:19:24;;;;;;;;;;;;;;;;;;;;;
2020/12/29 00:22:49;;;;;;;0.30;0.30;;;;;;;2.93;89.41;95626.19;1968986;82;20382;-77
2020/12/29 00:25:51;;;;;;;0.30;0.20;;;;;;;2.95;89.44;95635.47;1972019;82;20665;-77
2020/12/29 00:28:53;;;;;;;0.73;0.29;;;;;;;2.97;89.31;95628.56;1970620;82;20844;-77
2020/12/29 00:31:54;;;;;;;0.46;0.29;;;;;;;2.96;89.32;95632.03;1971627;82;20449;-77
2020/12/29 00:51:37;;;;;;;0.13;0.10;;;;;;;2.93;88.89;95629.56;2201429;71;21614;-85
2020/12/29 00:54:39;;;;;;;0.20;0.20;;;;;;;2.91;88.90;95631.34;1985597;82;20407;-85
2020/12/29 00:57:42;;;;;;;0.86;0.15;;;;;;;2.90;88.79;95624.56;1985301;82;20299;-88
2020/12/29 01:04:07;;;;;;;0.31;0.20;;;;;;;2.88;88.63;95622.94;2177696;70;20416;-84
2020/12/29 01:07:09;;;;;;;0.20;0.20;;;;;;;2.87;88.61;95622.13;1988829;82;20331;-86
2020/12/29 01:18:26;;;;;;;0.20;0.20;;;;;;;2.80;88.63;95646.25;2011268;71;20339;-82
2020/12/29 01:21:33;;;;;;;0.28;0.20;;;;;;;2.78;88.86;95657.44;1994102;82;20361;-84
2020/12/29 01:54:40;;;;;;;0.16;0.15;;;;;;;2.42;88.06;95724.34;2023712;70;20347;-84
2020/12/29 01:57:42;;;;;;;0.20;0.20;;;;;;;2.38;88.15;95723.59;2005222;81;20311;-85
2020/12/29 02:00:45;;;;;;;0.10;0.10;;;;;;;2.39;88.20;95734.69;2004034;81;20350;-88
2020/12/29 02:03:47;;;;;;;0.20;0.20;;;;;;;2.32;87.90;95731.44;2011055;81;20363;-84
2020/12/29 02:06:49;;;;;;;0.15;0.15;;;;;;;2.34;88.07;95745.06;2010802;81;20394;-86
2020/12/29 02:09:51;;;;;;;0.13;0.13;;;;;;;2.38;88.11;95749.19;2017310;81;20339;-86
2020/12/29 02:33:08;;;;;;;0.45;0.10;;;;;;;2.15;87.46;95804.50;2029325;70;20393;-86
2020/12/29 02:36:11;;;;;;;0.10;0.10;;;;;;;2.07;87.43;95810.69;2020271;81;20287;-87
2020/12/29 02:39:13;;;;;;;0.10;0.10;;;;;;;2.07;87.66;95813.25;2011701;81;20324;-87
2020/12/29 02:42:15;;;;;;;0.10;0.10;;;;;;;2.07;87.46;95822.66;2069571;70;20362;-84
2020/12/29 02:45:16;;;;;;;0.24;0.10;;;;;;;2.05;87.73;95824.41;2051513;71;20351;-83
2020/12/29 02:48:18;;;;;;;0.10;0.10;;;;;;;2.09;87.84;95837.06;2014036;81;20334;-84
2020/12/29 02:51:21;;;;;;;0.10;0.10;;;;;;;2.10;87.82;95837.91;2014340;81;20408;-86
2020/12/29 02:54:26;;;;;;;0.11;0.10;;;;;;;2.09;87.86;95843.91;2027174;81;20374;-86
2020/12/29 02:57:38;;;;;;;0.41;0.41;;;;;;;2.11;87.94;95849.81;2070741;70;20326;-87
2020/12/29 03:04:30;;;;;;;0.10;0.10;;;;;;;2.09;87.98;95872.06;2030084;70;20290;-85
2020/12/29 03:07:32;;;;;;;0.10;0.10;;;;;;;2.12;88.21;95869.41;2012194;81;20344;-85
2020/12/29 03:10:34;;;;;;;0.10;0.10;;;;;;;2.10;88.15;95881.41;2008237;81;20315;-85
2020/12/29 03:13:36;;;;;;;0.10;0.10;;;;;;;2.12;88.24;95879.63;2006498;81;20489;-84
2020/12/29 03:16:38;;;;;;;0.10;0.10;;;;;;;2.08;88.07;95885.72;2010721;81;20303;-83
2020/12/29 03:23:43;;;;;;;0.20;0.20;;;;;;;2.10;88.22;95895.03;2021442;70;20326;-86
2020/12/29 03:26:46;;;;;;;0.20;0.20;;;;;;;2.13;88.38;95904.34;2013876;81;20310;-85
2020/12/29 03:29:47;;;;;;;0.20;0.20;;;;;;;2.11;88.42;95913.78;2005315;81;20356;-86
2020/12/29 03:36:12;;;;;;;0.24;0.20;;;;;;;2.06;88.48;95936.09;2030320;70;20437;-85
2020/12/29 03:39:14;;;;;;;0.10;0.10;;;;;;;2.11;88.49;95949.59;2013589;81;20441;-85
2020/12/29 03:42:18;;;;;;;0.20;0.20;;;;;;;2.12;88.55;95956.41;2007451;81;20326;-83
2020/12/29 03:45:20;;;;;;;0.28;0.20;;;;;;;2.11;88.59;95958.13;2009140;81;20327;-84
2020/12/29 03:48:25;;;;;;;0.20;0.20;;;;;;;2.10;88.68;95976.06;2009164;81;20322;-84
2020/12/29 03:51:27;;;;;;;0.20;0.20;;;;;;;2.10;88.62;95988.88;2011106;81;20368;-83
2020/12/29 03:54:29;;;;;;;0.20;0.20;;;;;;;2.16;88.72;95995.56;2007493;81;20417;-84
2020/12/29 03:57:32;;;;;;;0.22;0.17;;;;;;;2.18;88.84;95996.38;2005302;81;20260;-84
2020/12/29 04:00:36;;;;;;;0.10;0.10;;;;;;;2.22;88.92;96005.63;2005617;81;20322;-84
2020/12/29 04:03:43;;;;;;;0.19;0.19;;;;;;;2.24;88.86;96009.00;2005468;81;20348;-83
2020/12/29 04:06:47;;;;;;;0.26;0.24;;;;;;;2.21;88.56;96022.72;2005757;81;20416;-84
2020/12/29 04:09:52;;;;;;;0.20;0.20;;;;;;;2.22;88.70;96021.81;2005422;81;20336;-83
2020/12/29 04:12:54;;;;;;;0.20;0.20;;;;;;;2.24;88.76;96025.19;2007026;81;20323;-83
2020/12/29 04:15:57;;;;;;;0.30;0.30;;;;;;;2.27;88.65;96037.06;2004537;81;20322;-83
2020/12/29 04:18:59;;;;;;;0.20;0.20;;;;;;;2.25;88.62;96039.66;2006417;81;20348;-83
2020/12/29 04:22:01;;;;;;;0.20;0.20;;;;;;;2.27;88.64;96053.25;2003064;81;20355;-83
2020/12/29 04:25:06;;;;;;;0.31;0.29;;;;;;;2.26;88.65;96051.56;2006099;81;20350;-82
2020/12/29 04:28:08;;;;;;;0.30;0.30;;;;;;;2.28;88.70;96060.06;2003915;81;20311;-83
2020/12/29 04:31:12;;;;;;;0.36;0.30;;;;;;;2.26;88.58;96066.94;2005996;81;20310;-82
2020/12/29 04:34:14;;;;;;;0.50;0.30;;;;;;;2.23;88.59;96073.84;2006267;81;20351;-82
2020/12/29 04:37:17;;;;;;;0.20;0.20;;;;;;;2.19;88.65;96083.34;2002750;81;20387;-83
2020/12/29 04:40:19;;;;;;;0.44;0.21;;;;;;;2.19;88.73;96082.50;2007025;81;20358;-82
2020/12/29 04:43:21;;;;;;;0.30;0.30;;;;;;;2.20;88.75;96099.53;2005202;81;20363;-82
2020/12/29 04:46:23;;;;;;;0.30;0.30;;;;;;;2.21;88.60;96108.88;2002244;81;20433;-82
2020/12/29 04:49:29;;;;;;;0.30;0.30;;;;;;;2.18;88.61;96112.38;2004734;81;20557;-81
2020/12/29 04:52:31;;;;;;;0.25;0.25;;;;;;;2.17;88.63;96122.63;2003056;81;20348;-82
2020/12/29 04:55:37;;;;;;;0.24;0.24;;;;;;;2.16;88.72;96128.63;2003131;81;20351;-81
2020/12/29 04:58:44;;;;;;;0.30;0.30;;;;;;;2.14;88.56;96136.31;2000642;81;20440;-82
2020/12/29 05:01:46;;;;;;;0.30;0.30;;;;;;;2.15;88.66;96145.69;1999599;81;20470;-83
2020/12/29 05:04:48;;;;;;;0.29;0.29;;;;;;;2.15;88.72;96150.81;1997833;81;20750;-80
2020/12/29 05:07:50;;;;;;;0.24;0.24;;;;;;;2.15;88.84;96147.41;1996118;81;20344;-80
2020/12/29 05:10:52;;;;;;;0.30;0.30;;;;;;;2.18;88.75;96160.16;1997300;81;20359;-81
2020/12/29 05:13:53;;;;;;;0.20;0.20;;;;;;;2.21;88.66;96170.31;1995241;81;20428;-79
2020/12/29 05:16:55;;;;;;;0.98;0.30;;;;;;;2.18;88.35;96165.28;1994096;81;20318;-80
2020/12/29 05:19:58;;;;;;;0.26;0.26;;;;;;;2.17;88.61;96177.22;1993782;81;20348;-79
2020/12/29 05:23:00;;;;;;;0.20;0.20;;;;;;;2.16;88.58;96184.94;1995398;81;20868;-79
2020/12/29 05:26:03;;;;;;;0.20;0.20;;;;;;;2.13;88.58;96191.78;1996210;81;20358;-79
2020/12/29 05:29:07;;;;;;;0.30;0.30;;;;;;;2.17;88.71;96201.97;1994967;81;20390;-80
2020/12/29 05:32:17;;;;;;;0.30;0.30;;;;;;;2.20;88.70;96210.41;1994300;81;20327;-79
2020/12/29 05:35:18;;;;;;;0.35;0.35;;;;;;;2.23;88.75;96219.75;1992870;81;20403;-80
2020/12/29 05:38:20;;;;;;;0.30;0.30;;;;;;;2.22;88.64;96231.69;1993220;81;20331;-80
2020/12/29 05:41:22;;;;;;;0.30;0.30;;;;;;;2.24;88.57;96237.63;1993761;81;20360;-79
2020/12/29 05:44:32;;;;;;;0.44;0.30;;;;;;;2.25;88.45;96248.69;1992970;81;20426;-79
2020/12/29 05:47:34;;;;;;;0.70;0.30;;;;;;;2.27;88.43;96241.81;1992805;81;20378;-79
2020/12/29 05:50:37;;;;;;;0.31;0.31;;;;;;;2.28;88.49;96253.75;1992772;81;20801;-79
2020/12/29 05:53:39;;;;;;;1.44;0.20;;;;;;;2.32;88.59;96263.88;1992167;81;20331;-79
2020/12/29 05:56:41;;;;;;;0.29;0.29;;;;;;;2.29;88.45;96263.94;1992242;81;20442;-78
2020/12/29 05:59:45;;;;;;;0.22;0.22;;;;;;;2.29;88.26;96269.06;1992174;81;20364;-79
2020/12/29 06:02:49;;;;;;;0.30;0.30;;;;;;;2.30;88.27;96280.97;1992171;81;20889;-79
2020/12/29 06:05:52;;;;;;;0.96;0.30;;;;;;;2.26;88.16;96289.63;1992115;81;21026;-79
2020/12/29 06:08:56;;;;;;;0.20;0.20;;;;;;;2.28;88.46;96304.94;1992207;81;20370;-78
2020/12/29 06:11:59;;;;;;;0.30;0.30;;;;;;;2.33;88.41;96316.75;1992287;81;20330;-79
2020/12/29 06:15:02;;;;;;;0.30;0.30;;;;;;;2.32;88.29;96320.19;1992366;81;21115;-80
2020/12/29 06:18:05;;;;;;;0.30;0.30;;;;;;;2.27;88.03;96329.69;1991563;81;20370;-79
2020/12/29 06:21:08;;;;;;;0.29;0.29;;;;;;;2.28;88.18;96326.25;1992307;81;20465;-80
2020/12/29 06:24:12;;;;;;;0.28;0.28;;;;;;;2.27;88.04;96339.09;1991564;81;21010;-78
2020/12/29 06:27:14;;;;;;;0.29;0.29;;;;;;;2.30;88.19;96341.59;1991633;81;20864;-78
2020/12/29 06:30:18;;;;;;;0.20;0.20;;;;;;;2.29;88.08;96353.53;1992559;81;20323;-78
2020/12/29 06:33:20;;;;;;;0.20;0.20;;;;;;;2.35;88.08;96355.16;1990547;81;20330;-78
2020/12/29 06:36:25;;;;;;;0.46;0.30;;;;;;;2.34;87.93;96366.28;1990079;81;20352;-79
2020/12/29 06:39:27;;;;;;;0.30;0.30;;;;;;;2.34;88.01;96372.22;1989797;81;20490;-79
2020/12/29 06:42:29;;;;;;;0.30;0.30;;;;;;;2.38;88.13;96381.53;1990066;81;20352;-79
2020/12/29 06:45:36;;;;;;;0.25;0.25;;;;;;;2.40;88.16;96396.84;1989610;81;20342;-78
2020/12/29 06:48:38;;;;;;;0.30;0.30;;;;;;;2.35;88.00;96407.19;1989382;81;20841;-77
2020/12/29 06:51:39;;;;;;;0.20;0.20;;;;;;;2.38;88.20;96419.94;1989358;81;20356;-77
2020/12/29 06:54:48;;;;;;;0.30;0.30;;;;;;;2.30;87.87;96423.50;1988408;81;20364;-77
2020/12/29 06:57:51;;;;;;;0.30;0.30;;;;;;;2.27;87.97;96438.91;1984850;81;20444;-77
2020/12/29 07:00:52;;;;;;;0.20;0.20;;;;;;;2.30;88.09;96444.81;1989603;81;20205;-78
2020/12/29 07:04:05;;;;;;;0.26;0.26;;;;;;;2.34;88.11;96443.06;1991380;81;20374;-79
2020/12/29 07:07:22;;;;;;;0.29;0.29;;;;;;;2.35;88.04;96455.84;1991806;81;20352;-79
2020/12/29 07:10:41;;;;;;;0.30;0.30;;;;;;;2.36;88.06;96472.03;1991300;81;20437;-76
2020/12/29 07:13:51;;;;;;;0.30;0.30;;;;;;;2.40;88.13;96481.34;1989703;81;21393;-80
2020/12/29 07:16:53;;;;;;;0.36;0.36;;;;;;;2.37;87.76;96486.53;1989956;81;20204;-76
2020/12/29 07:19:55;;;;;;;0.40;0.40;;;;;;;2.37;87.77;96501.88;1991362;81;20396;-78
2020/12/29 07:23:05;;;;;;;0.56;0.30;;;;;;;2.41;88.08;96506.06;1990293;81;20364;-78
2020/12/29 07:26:07;;;;;;;0.30;0.30;;;;;;;2.46;88.08;96516.22;1989226;81;20338;-76
2020/12/29 07:29:09;;;;;;;0.30;0.30;;;;;;;2.46;88.07;96529.03;1989122;81;20349;-78
2020/12/29 07:32:11;;;;;;;0.30;0.30;;;;;;;2.45;88.03;96528.19;1989634;81;20374;-78
2020/12/29 07:35:13;;;;;;;0.32;0.32;;;;;;;2.46;88.10;96539.25;1990390;81;20407;-80
2020/12/29 07:38:19;;;;;;;0.50;0.47;;;;;;;2.43;88.16;96553.81;1990180;81;20362;-79
2020/12/29 07:41:20;;;;;;;0.50;0.50;;;;;;;2.43;88.36;96558.94;1991587;81;20330;-77
2020/12/29 07:44:24;;;;;;;0.47;0.47;;;;;;;2.48;88.56;96571.66;1990291;81;20331;-77
2020/12/29 07:47:25;;;;;;;0.64;0.59;;;;;;;2.55;88.49;96572.41;1990996;81;20374;-79
2020/12/29 07:50:28;;;;;;;0.81;0.60;;;;;;;2.57;88.39;96583.47;1990925;81;20337;-79
2020/12/29 07:53:30;;;;;;;0.60;0.60;;;;;;;2.58;88.23;96588.56;1998327;81;21218;-77
2020/12/29 07:56:32;;;;;;;0.54;0.54;;;;;;;2.58;88.31;96592.84;1992584;81;20334;-79
2020/12/29 07:59:34;;;;;;;0.70;0.60;;;;;;;2.61;88.52;96591.06;1992298;81;20350;-79
2020/12/29 08:02:35;;;;;;;1.45;0.52;;;;;;;2.65;88.50;96600.38;1990510;81;20795;-76
2020/12/29 08:05:38;;;;;;;0.51;0.50;;;;;;;2.66;88.46;96611.44;1990992;81;20968;-77
2020/12/29 08:08:41;;;;;;;1.13;0.60;;;;;;;2.67;88.49;96613.97;1992050;81;21049;-77
2020/12/29 08:11:43;;;;;;;0.76;0.40;;;;;;;2.72;88.40;96629.28;1991621;81;20334;-79
2020/12/29 08:14:45;;;;;;;0.94;0.60;;;;;;;2.71;88.12;96623.31;1991535;81;20346;-79
2020/12/29 08:17:46;;;;;;;0.45;0.45;;;;;;;2.73;88.39;96641.22;1991418;81;20346;-78
2020/12/29 08:20:56;;;;;;;1.11;0.60;;;;;;;2.75;88.28;96654.84;1991685;81;20405;-77
2020/12/29 08:23:58;;;;;;;0.50;0.50;;;;;;;2.75;88.21;96662.53;1990558;81;20360;-78
2020/12/29 08:27:00;;;;;;;0.68;0.60;;;;;;;2.75;88.15;96679.63;1991278;81;20319;-78
2020/12/29 08:30:01;;;;;;;0.60;0.60;;;;;;;2.74;88.29;96686.47;1991163;81;20330;-78
2020/12/29 08:33:05;;;;;;;0.50;0.50;;;;;;;2.74;88.20;96691.59;1990929;81;20322;-78
2020/12/29 08:36:08;;;;;;;0.51;0.49;;;;;;;2.71;88.09;96702.75;1991409;81;20491;-78
2020/12/29 08:39:22;;;;;;;0.79;0.43;;;;;;;2.72;88.28;96707.00;1991679;81;20342;-77
2020/12/29 08:42:25;;;;;;;0.40;0.40;;;;;;;2.76;88.34;96715.47;1991329;81;20327;-79
2020/12/29 08:45:28;;;;;;;0.40;0.40;;;;;;;2.77;88.22;96719.72;1991133;81;20405;-77
2020/12/29 08:48:31;;;;;;;0.40;0.40;;;;;;;2.85;88.30;96722.13;1991070;81;20367;-77
2020/12/29 08:51:38;;;;;;;0.40;0.40;;;;;;;2.90;88.18;96728.06;1991197;81;20391;-79
2020/12/29 08:54:39;;;;;;;0.60;0.47;;;;;;;2.94;88.16;96734.81;1990561;81;21387;-78
2020/12/29 08:57:41;;;;;;;0.40;0.40;;;;;;;2.97;87.97;96735.59;1990663;81;20384;-78
2020/12/29 09:00:44;;;;;;;0.96;0.50;;;;;;;3.03;87.97;96745.72;1991050;81;20338;-78
2020/12/29 09:03:45;;;;;;;1.10;0.60;;;;;;;3.06;87.60;96749.13;1989917;81;20863;-78
2020/12/29 09:07:09;;;;;;;0.50;0.50;;;;;;;3.10;87.55;96751.63;1989945;81;20326;-78
2020/12/29 09:10:12;;;;;;;0.70;0.70;;;;;;;3.12;87.20;96761.84;1988826;81;20351;-78
2020/12/29 09:13:13;;;;;;;0.50;0.50;;;;;;;3.14;86.89;96772.91;1989861;81;20342;-78
2020/12/29 09:16:15;;;;;;;2.44;0.73;;;;;;;3.13;86.67;96790.00;1989487;81;21015;-78
2020/12/29 09:19:16;;;;;;;0.94;0.60;;;;;;;3.12;86.58;96802.84;1989695;81;20352;-78
2020/12/29 09:22:18;;;;;;;3.00;0.80;;;;;;;3.15;86.58;96813.06;1989664;81;20330;-78
2020/12/29 09:25:36;;;;;;;1.24;0.61;;;;;;;3.16;86.52;96813.03;1989180;81;20438;-78
2020/12/29 09:28:38;;;;;;;1.27;0.60;;;;;;;3.20;86.38;96829.19;1989035;81;20358;-78
2020/12/29 09:31:39;;;;;;;1.71;1.20;;;;;;;3.19;86.36;96846.28;1990582;81;20352;-78
2020/12/29 09:34:41;;;;;;;0.77;0.50;;;;;;;3.20;86.43;96845.41;1991135;81;20356;-78
2020/12/29 09:37:44;;;;;;;1.54;0.52;;;;;;;3.20;86.25;96852.28;1991000;81;20334;-78
2020/12/29 09:40:48;;;;;;;2.13;0.70;;;;;;;3.17;86.17;96863.44;1991762;81;20867;-78
2020/12/29 09:43:50;;;;;;;2.29;0.70;;;;;;;3.16;86.41;96869.44;1990843;81;20343;-78
2020/12/29 09:46:54;;;;;;;1.41;0.70;;;;;;;3.17;86.43;96875.41;1990890;81;20356;-78
2020/12/29 09:49:56;;;;;;;1.61;0.68;;;;;;;3.18;86.46;96872.81;1990142;81;20352;-78
2020/12/29 09:52:58;;;;;;;1.52;0.70;;;;;;;3.16;86.27;96878.84;1990860;81;20340;-79
2020/12/29 09:56:01;;;;;;;3.00;0.80;;;;;;;3.15;86.45;96884.84;1990577;81;20368;-78
2020/12/29 09:59:03;;;;;;;2.36;0.60;;;;;;;3.19;86.57;96871.94;1991016;81;20760;-78
2020/12/29 10:02:06;;;;;;;2.63;1.02;;;;;;;3.24;86.65;96875.28;1994380;81;20330;-78
2020/12/29 10:05:08;;;;;;;1.27;0.70;;;;;;;3.33;86.84;96879.41;1991825;81;21255;-78
2020/12/29 10:08:11;;;;;;;1.64;0.70;;;;;;;3.45;86.83;96891.19;1991268;81;20354;-77
2020/12/29 10:11:12;;;;;;;2.38;0.70;;;;;;;3.70;86.85;96884.75;1990967;81;20792;-77
2020/12/29 10:14:14;;;;;;;2.17;0.80;;;;;;;3.88;86.47;96889.56;1991303;81;20403;-77
2020/12/29 10:17:16;;;;;;;2.26;0.80;;;;;;;4.10;85.86;96889.16;1990604;81;20342;-77
2020/12/29 10:20:18;;;;;;;1.76;0.90;;;;;;;4.19;84.41;96899.28;1990248;81;20956;-77
2020/12/29 10:23:20;;;;;;;2.97;0.94;;;;;;;4.28;83.94;96908.50;1990246;81;20370;-77
2020/12/29 10:26:21;;;;;;;2.22;0.70;;;;;;;4.30;83.47;96904.19;1989976;81;20343;-77
2020/12/29 10:29:24;;;;;;;2.88;0.69;;;;;;;4.31;82.91;96913.56;1990289;81;20338;-77
2020/12/29 10:32:25;;;;;;;1.04;0.73;;;;;;;4.40;82.61;96923.69;1993845;81;20358;-78
2020/12/29 10:35:27;;;;;;;2.69;0.60;;;;;;;4.50;82.19;96915.78;1990412;81;20364;-77
2020/12/29 10:38:29;;;;;;;1.67;0.75;;;;;;;4.60;81.80;96918.13;1991311;81;20326;-78
2020/12/29 10:41:32;;;;;;;3.53;0.82;;;;;;;4.61;81.17;96918.09;1990011;81;20334;-77
2020/12/29 10:44:33;;;;;;;3.50;0.60;;;;;;;4.64;80.54;96919.75;1990183;81;20382;-77
2020/12/29 10:47:35;;;;;;;1.67;0.66;;;;;;;4.65;80.45;96917.16;1990574;81;20370;-77
2020/12/29 10:50:37;;;;;;;1.96;0.68;;;;;;;4.66;79.90;96921.41;1990793;81;20319;-77
2020/12/29 10:53:39;;;;;;;3.42;0.70;;;;;;;4.69;79.83;96929.09;1990926;81;20346;-77
2020/12/29 10:56:41;;;;;;;3.79;1.01;;;;;;;4.73;79.95;96940.16;1990674;81;20319;-77
2020/12/29 10:59:42;;;;;;;1.59;0.70;;;;;;;4.81;79.93;96931.38;1990650;81;20338;-77
2020/12/29 11:02:44;;;;;;;2.40;0.80;;;;;;;4.90;80.03;96945.78;1990887;81;20352;-77
2020/12/29 11:05:45;;;;;;;2.55;0.73;;;;;;;4.99;80.15;96944.72;1990716;81;20335;-78
2020/12/29 11:08:48;;;;;;;2.35;0.70;;;;;;;5.07;79.88;96953.13;1994548;81;21107;-78
2020/12/29 11:11:50;;;;;;;2.60;0.80;;;;;;;5.16;79.13;96947.78;1990423;81;20330;-76
2020/12/29 11:14:51;;;;;;;1.34;0.56;;;;;;;5.28;78.61;96952.66;1989843;81;20327;-76
2020/12/29 11:17:53;;;;;;;1.86;0.50;;;;;;;5.39;77.57;96952.41;1991002;81;20346;-76
2020/12/29 11:20:55;;;;;;;2.55;0.66;;;;;;;5.53;77.08;96957.22;1990848;81;20868;-75
2020/12/29 11:23:57;;;;;;;2.95;0.85;;;;;;;5.64;76.59;96955.25;1990183;81;20354;-75
2020/12/29 11:26:58;;;;;;;2.06;0.64;;;;;;;5.65;76.48;96957.78;1990508;81;20334;-74
2020/12/29 11:30:00;;;;;;;1.96;0.91;;;;;;;5.59;76.21;96972.53;1989846;81;20319;-75
2020/12/29 11:33:02;;;;;;;1.95;0.40;;;;;;;5.52;76.61;96968.38;1990740;81;20845;-76
2020/12/29 11:36:04;;;;;;;1.38;0.51;;;;;;;5.47;76.79;96978.81;1990154;81;20810;-76
2020/12/29 11:39:06;;;;;;;6.53;1.04;;;;;;;5.27;75.00;96971.53;1990768;81;20354;-76
2020/12/29 11:42:07;;;;;;;4.39;0.50;;;;;;;5.12;75.81;96972.72;1986533;81;20356;-75
2020/12/29 11:45:09;;;;;;;1.54;0.50;;;;;;;5.12;76.55;96975.28;1990253;81;20817;-74
2020/12/29 11:48:11;;;;;;;1.41;0.35;;;;;;;5.11;76.44;96977.91;1990341;81;20733;-75
2020/12/29 11:51:13;;;;;;;1.70;0.46;;;;;;;5.12;76.81;96975.28;1990203;81;20404;-75
2020/12/29 11:54:14;;;;;;;2.38;0.64;;;;;;;5.10;76.50;96976.22;1990640;81;20396;-75
2020/12/29 11:57:16;;;;;;;1.69;0.34;;;;;;;5.05;76.74;96968.59;1989462;81;20370;-75
2020/12/29 12:00:18;;;;;;;1.06;0.44;;;;;;;4.97;76.64;96975.63;1991931;81;20330;-74
2020/12/29 12:03:19;;;;;;;2.21;0.55;;;;;;;4.96;76.99;96963.63;1988556;81;20342;-74
2020/12/29 12:06:21;;;;;;;2.54;1.01;;;;;;;4.96;77.41;96962.78;1994164;81;20331;-81
2020/12/29 12:09:23;;;;;;;1.02;0.40;;;;;;;4.94;77.15;96959.41;1998698;81;20359;-80
2020/12/29 12:12:24;;;;;;;3.51;0.71;;;;;;;4.96;77.32;96967.94;1997690;81;20480;-79
2020/12/29 12:15:26;;;;;;;1.65;0.47;;;;;;;4.92;77.85;96966.31;1994054;81;20366;-80
2020/12/29 12:18:28;;;;;;;1.39;0.34;;;;;;;4.93;78.35;96975.72;1996102;81;20387;-80
2020/12/29 12:21:30;;;;;;;1.40;0.40;;;;;;;4.91;78.26;96974.91;1994436;81;20814;-80
2020/12/29 12:24:32;;;;;;;2.86;0.65;;;;;;;4.84;78.18;96974.16;1992421;81;20350;-79
2020/12/29 12:27:34;;;;;;;2.21;0.60;;;;;;;4.78;78.59;96970.00;1998047;81;20419;-80
2020/12/29 12:30:35;;;;;;;1.65;0.40;;;;;;;4.73;79.14;96981.28;1991899;81;20331;-79
2020/12/29 12:33:37;;;;;;;1.17;0.50;;;;;;;4.74;79.84;96983.81;1992911;81;21060;-77
2020/12/29 12:36:39;;;;;;;1.36;0.41;;;;;;;4.73;79.91;96991.56;1989732;81;20989;-77
2020/12/29 12:39:41;;;;;;;1.02;0.50;;;;;;;4.66;80.30;96992.53;1990069;81;20318;-77
2020/12/29 12:42:43;;;;;;;2.71;0.50;;;;;;;4.62;80.77;96998.63;1990222;81;20938;-77
2020/12/29 12:45:44;;;;;;;1.46;0.70;;;;;;;4.62;81.15;96999.47;1989809;81;20364;-77
2020/12/29 12:48:46;;;;;;;0.89;0.40;;;;;;;4.58;81.72;97010.69;1989260;81;20379;-77
2020/12/29 12:51:48;;;;;;;1.50;0.50;;;;;;;4.57;82.25;97015.84;1989841;81;21297;-78
2020/12/29 12:54:49;;;;;;;1.70;0.46;;;;;;;4.55;82.54;97015.88;1989673;81;21303;-77
2020/12/29 12:57:51;;;;;;;1.54;0.51;;;;;;;4.55;82.50;97009.03;1989683;81;20342;-77
2020/12/29 13:00:52;;;;;;;2.35;0.41;;;;;;;4.54;82.80;97017.59;1991488;81;20332;-77
2020/12/29 13:03:54;;;;;;;2.67;0.71;;;;;;;4.53;82.79;97010.78;1989639;81;20978;-78
2020/12/29 13:06:56;;;;;;;1.04;0.93;;;;;;;4.53;82.91;97017.66;1989827;81;20326;-77
2020/12/29 13:09:58;;;;;;;2.13;0.51;;;;;;;4.53;83.09;97021.06;1989734;81;20346;-76
2020/12/29 13:12:59;;;;;;;2.78;1.39;;;;;;;4.53;83.15;97015.06;1989872;81;20356;-77
2020/12/29 13:16:01;;;;;;;0.81;0.54;;;;;;;4.53;83.19;97022.78;1989421;81;20471;-78
2020/12/29 13:19:03;;;;;;;1.15;0.52;;;;;;;4.53;83.07;97018.50;1989882;81;20475;-78
2020/12/29 13:22:05;;;;;;;1.09;0.50;;;;;;;4.52;83.00;97019.38;1990113;81;20338;-78
2020/12/29 13:25:07;;;;;;;3.72;1.39;;;;;;;4.50;82.97;97018.56;1990647;81;20498;-78
2020/12/29 13:28:09;;;;;;;1.30;0.54;;;;;;;4.46;83.26;97019.47;1993906;81;20374;-78
2020/12/29 13:31:12;;;;;;;1.60;0.60;;;;;;;4.46;83.31;97028.88;1990718;81;21103;-77
2020/12/29 13:34:13;;;;;;;1.61;0.70;;;;;;;4.44;83.29;97036.63;1990796;81;20346;-77
2020/12/29 13:37:16;;;;;;;1.76;0.70;;;;;;;4.42;83.78;97040.94;1991035;81;20364;-77
2020/12/29 13:40:18;;;;;;;0.66;0.49;;;;;;;4.44;83.76;97048.63;1990486;81;20746;-77
2020/12/29 13:43:19;;;;;;;1.79;0.79;;;;;;;4.46;83.56;97054.59;1991465;81;20347;-77
2020/12/29 13:46:21;;;;;;;0.91;0.60;;;;;;;4.47;83.45;97061.41;1990972;81;20335;-79
2020/12/29 13:49:23;;;;;;;1.31;0.50;;;;;;;4.48;83.42;97052.81;2004333;81;20460;-77
2020/12/29 13:52:25;;;;;;;0.88;0.60;;;;;;;4.49;82.82;97057.97;1991599;81;20396;-77
2020/12/29 13:55:27;;;;;;;2.50;0.73;;;;;;;4.49;82.86;97054.56;1990455;81;20363;-78
2020/12/29 13:58:29;;;;;;;2.47;0.94;;;;;;;4.48;82.31;97053.69;1990539;81;20817;-77
2020/12/29 14:01:30;;;;;;;2.64;0.95;;;;;;;4.50;81.98;97056.25;1989906;81;20388;-77
2020/12/29 14:04:32;;;;;;;1.61;0.70;;;;;;;4.51;81.99;97057.94;1990428;81;20352;-77
2020/12/29 14:07:33;;;;;;;1.74;0.70;;;;;;;4.54;81.92;97063.88;1990372;81;20350;-77
2020/12/29 14:10:35;;;;;;;0.50;0.50;;;;;;;4.55;81.48;97065.56;1990631;81;20350;-77
2020/12/29 14:13:37;;;;;;;2.55;0.73;;;;;;;4.55;81.35;97064.72;1990672;81;20552;-77
2020/12/29 14:16:38;;;;;;;1.19;0.80;;;;;;;4.54;81.38;97069.00;1991468;81;20314;-77
2020/12/29 14:19:40;;;;;;;0.88;0.55;;;;;;;4.57;81.62;97070.66;1990601;81;20334;-77
2020/12/29 14:22:41;;;;;;;0.91;0.74;;;;;;;4.58;81.56;97071.50;1990527;81;20326;-77
2020/12/29 14:25:43;;;;;;;1.02;0.80;;;;;;;4.59;81.77;97068.06;1991128;81;21202;-78
2020/12/29 14:28:46;;;;;;;0.86;0.66;;;;;;;4.60;81.74;97072.31;1990222;81;20334;-77
2020/12/29 14:31:49;;;;;;;1.05;0.50;;;;;;;4.64;81.94;97079.09;1990146;81;20311;-77
2020/12/29 14:34:51;;;;;;;0.80;0.60;;;;;;;4.65;81.77;97086.78;1990511;81;20358;-77
2020/12/29 14:37:53;;;;;;;0.77;0.55;;;;;;;4.58;81.43;97086.94;1992390;81;20348;-79
2020/12/29 14:40:55;;;;;;;0.89;0.50;;;;;;;4.53;81.69;97071.59;1990531;81;20345;-78
2020/12/29 14:43:57;;;;;;;0.68;0.68;;;;;;;4.42;81.69;97088.91;1993187;81;20350;-76
2020/12/29 14:47:02;;;;;;;0.50;0.50;;;;;;;4.35;82.07;97090.75;1990658;81;20326;-76
2020/12/29 14:50:04;;;;;;;0.89;0.57;;;;;;;4.31;82.44;97093.38;1991340;81;20825;-76
2020/12/29 14:53:05;;;;;;;1.88;0.70;;;;;;;4.29;82.82;97101.09;1990176;81;20923;-76
2020/12/29 14:56:07;;;;;;;0.70;0.63;;;;;;;4.30;82.96;97104.53;1990927;81;20372;-77
2020/12/29 14:59:09;;;;;;;0.59;0.59;;;;;;;4.29;83.05;97111.38;1989732;81;20722;-77
2020/12/29 15:02:10;;;;;;;0.64;0.60;;;;;;;4.25;83.15;97114.88;1990227;81;20396;-77
2020/12/29 15:05:12;;;;;;;1.36;0.50;;;;;;;4.22;83.08;97109.81;1988419;81;21087;-79
2020/12/29 15:08:13;;;;;;;1.44;0.56;;;;;;;4.21;83.17;97108.09;1989976;81;20327;-78
2020/12/29 15:11:15;;;;;;;0.81;0.60;;;;;;;4.13;83.09;97120.19;1990602;81;20371;-78
2020/12/29 15:14:16;;;;;;;0.71;0.50;;;;;;;4.10;83.23;97122.81;1989447;81;20350;-78
2020/12/29 15:17:18;;;;;;;0.80;0.55;;;;;;;4.06;83.27;97131.44;1990316;81;20346;-78
2020/12/29 15:20:19;;;;;;;0.51;0.50;;;;;;;4.02;83.31;97134.94;1989661;81;20326;-78
2020/12/29 15:23:21;;;;;;;1.98;0.47;;;;;;;3.99;83.30;97145.25;1989711;81;20341;-78
2020/12/29 15:26:23;;;;;;;1.31;0.50;;;;;;;3.97;83.28;97147.00;1990295;81;20319;-78
2020/12/29 15:29:24;;;;;;;0.54;0.50;;;;;;;3.91;83.29;97148.78;1989842;81;20735;-78
2020/12/29 15:32:26;;;;;;;1.05;0.56;;;;;;;3.85;83.23;97155.72;1990412;81;20326;-78
2020/12/29 15:35:27;;;;;;;0.44;0.44;;;;;;;3.80;83.21;97162.66;1989722;81;20887;-78
2020/12/29 15:38:29;;;;;;;0.79;0.50;;;;;;;3.74;83.08;97166.13;1990656;81;20948;-77
2020/12/29 15:41:31;;;;;;;1.54;0.50;;;;;;;3.68;82.97;97171.34;1990344;81;20343;-78
2020/12/29 15:44:33;;;;;;;0.50;0.50;;;;;;;3.59;83.12;97169.75;1989472;81;20335;-77
2020/12/29 15:47:35;;;;;;;0.50;0.50;;;;;;;3.55;83.13;97174.94;1990674;81;20352;-78
2020/12/29 15:50:36;;;;;;;0.40;0.40;;;;;;;3.51;83.32;97175.84;1990663;81;20442;-77
2020/12/29 15:53:39;;;;;;;0.64;0.49;;;;;;;3.44;83.33;97177.63;1990177;81;20439;-78
2020/12/29 15:56:40;;;;;;;0.50;0.40;;;;;;;3.38;83.36;97177.69;1990368;81;20330;-78
2020/12/29 15:59:59;;;;;;;0.55;0.50;;;;;;;3.30;83.40;97180.34;1990041;81;20448;-77
2020/12/29 16:03:02;;;;;;;0.98;0.46;;;;;;;3.27;83.56;97176.97;1990661;81;20584;-77
2020/12/29 16:06:03;;;;;;;0.65;0.45;;;;;;;3.21;83.53;97189.84;1995046;81;20364;-81
2020/12/29 16:09:05;;;;;;;1.41;0.60;;;;;;;3.15;83.64;97187.38;1998298;81;20856;-81
2020/12/29 16:12:26;;;;;;;1.16;0.70;;;;;;;3.04;83.80;97193.44;2000348;81;20354;-81
2020/12/29 16:15:28;;;;;;;1.27;0.93;;;;;;;2.99;84.13;97195.22;1997368;81;20368;-81
2020/12/29 16:18:29;;;;;;;2.44;1.33;;;;;;;2.98;84.60;97205.47;1996809;81;20338;-80
2020/12/29 16:21:35;;;;;;;2.46;1.31;;;;;;;2.99;85.08;97209.75;1996607;81;20331;-81